CheckWX is a tool to help pilots better visualize weather data.  It is not intended as a substitute for an official pre-flight weather briefing.

02:50:02 UTC

KSZT METAR
Sandpoint Airport
Sandpoint, Idaho, USA
Current

35 mins ago

KSZT 230215Z AUTO 00000KT 10SM BKN075 OVC090 16/10 A2984 RMK AO2
Observed
Sep-23 @ 02:15 UTC
Visibility
10 SM
Flight Rules
VFR
Cloud Levels
  • Broken at 7,500' AGL
  • Overcast at 9,000' AGL
Temperature
16°C / 61°F
Dewpoint
10°C / 50°F
Humidity
68%
Altimeter
29.84" Hg
Pressure
1010.52 hPa
Previous

55 mins ago

KSZT 230155Z AUTO 00000KT 10SM -RA SCT060 OVC075 16/10 A2984 RMK AO2
Observed
Sep-23 @ 01:55 UTC
Visibility
10 SM
Flight Rules
VFR
Conditions
Light Rain
Cloud Levels
  • Scattered at 6,000' AGL
  • Overcast at 7,500' AGL
Temperature
16°C / 61°F
Dewpoint
10°C / 50°F
Humidity
68%
Altimeter
29.84" Hg
Pressure
1010.52 hPa
Previous

1 hour ago

KSZT 230135Z AUTO 25003KT 10SM RA SCT060 OVC075 16/11 A2984 RMK AO2
Observed
Sep-23 @ 01:35 UTC
Wind
  • 250° at 3 KTS
Visibility
10 SM
Flight Rules
VFR
Conditions
Rain
Cloud Levels
  • Scattered at 6,000' AGL
  • Overcast at 7,500' AGL
Temperature
16°C / 61°F
Dewpoint
11°C / 52°F
Humidity
72%
Altimeter
29.84" Hg
Pressure
1010.52 hPa